Time;durP1;ratioP1;P1;durP2;ratioP2;P2;SDS_P1;SDS_P2;PMS_P1;PMS_P2;Temp;Humidity;BMP_temperature;BMP_pressure;BME280_temperature;BME280_humidity;BME280_pressure;Samples;Min_cycle;Max_cycle;Signal;HPM_P1;HPM_P2
2021/10/26 00:02:24;;;;;;;1.60;1.27;;;21.20;53.50;;;;;;6273025;28;20013;-68
2021/10/26 00:05:25;;;;;;;1.33;1.10;;;21.20;53.50;;;;;;6271918;28;20074;-68
2021/10/26 00:08:26;;;;;;;1.55;1.27;;;21.20;53.50;;;;;;6271741;28;20028;-68
2021/10/26 00:11:26;;;;;;;1.80;1.38;;;21.20;53.50;;;;;;6272576;28;20049;-68
2021/10/26 00:14:27;;;;;;;1.60;1.23;;;21.20;53.50;;;;;;6273117;28;20051;-68
2021/10/26 00:17:27;;;;;;;1.70;1.20;;;21.20;53.50;;;;;;6271349;28;20060;-68
2021/10/26 00:20:30;;;;;;;1.95;1.20;;;21.20;53.40;;;;;;6271412;28;20025;-68
2021/10/26 00:23:30;;;;;;;1.67;1.20;;;21.20;53.50;;;;;;6290673;28;20387;-68
2021/10/26 00:26:31;;;;;;;2.08;1.27;;;21.20;53.50;;;;;;6281476;28;20111;-68
2021/10/26 00:29:32;;;;;;;1.38;1.20;;;21.20;53.40;;;;;;6271814;28;20027;-68
2021/10/26 00:32:32;;;;;;;1.52;1.13;;;21.20;53.40;;;;;;6272495;28;20437;-68
2021/10/26 00:35:33;;;;;;;2.28;1.40;;;21.20;53.50;;;;;;6270970;28;20021;-68
2021/10/26 00:38:34;;;;;;;1.75;1.40;;;21.20;53.50;;;;;;6272504;28;20382;-68
2021/10/26 00:41:35;;;;;;;1.55;1.20;;;21.20;53.40;;;;;;6272983;28;20048;-68
2021/10/26 00:44:36;;;;;;;1.80;1.20;;;21.20;53.50;;;;;;6271086;28;20060;-68
2021/10/26 00:47:37;;;;;;;1.30;1.20;;;21.20;53.50;;;;;;6272087;28;20021;-68
2021/10/26 00:50:37;;;;;;;2.20;1.20;;;21.20;53.50;;;;;;6272000;28;20482;-68
2021/10/26 00:53:38;;;;;;;1.02;0.82;;;21.20;53.50;;;;;;6271872;28;20036;-68
2021/10/26 00:56:39;;;;;;;1.30;1.10;;;21.20;53.50;;;;;;6276856;28;20021;-68
2021/10/26 00:59:39;;;;;;;1.50;1.20;;;21.20;53.50;;;;;;6297202;28;20429;-68
2021/10/26 01:02:44;;;;;;;1.67;1.08;;;21.20;53.50;;;;;;6282955;28;20025;-68
2021/10/26 01:05:45;;;;;;;2.00;1.42;;;21.20;53.50;;;;;;6270004;28;20029;-68
2021/10/26 01:08:48;;;;;;;1.23;1.13;;;21.20;53.50;;;;;;6271317;28;20032;-68
2021/10/26 01:11:49;;;;;;;1.38;1.23;;;21.20;53.50;;;;;;6271309;28;20049;-68
2021/10/26 01:14:49;;;;;;;1.20;1.10;;;21.20;53.50;;;;;;6271755;28;20032;-68
2021/10/26 01:17:50;;;;;;;1.67;1.08;;;21.20;53.50;;;;;;6271354;28;20032;-68
2021/10/26 01:20:52;;;;;;;1.60;1.20;;;21.20;53.50;;;;;;6271234;28;20025;-68
2021/10/26 01:23:53;;;;;;;2.03;1.40;;;21.20;53.50;;;;;;6290247;28;20048;-68
2021/10/26 01:26:53;;;;;;;1.60;1.40;;;21.20;53.50;;;;;;6282628;28;20086;-67
2021/10/26 01:29:54;;;;;;;1.60;1.10;;;21.20;53.50;;;;;;6269795;28;20244;-68
2021/10/26 01:32:54;;;;;;;1.92;1.30;;;21.20;53.50;;;;;;6270681;28;20045;-68
2021/10/26 01:35:55;;;;;;;1.08;0.98;;;21.20;53.60;;;;;;6270945;28;20029;-68
2021/10/26 01:38:56;;;;;;;1.98;1.30;;;21.20;53.50;;;;;;6270936;28;20091;-68
2021/10/26 01:41:57;;;;;;;1.48;1.35;;;21.20;53.60;;;;;;6270605;28;20120;-68
2021/10/26 01:44:58;;;;;;;1.40;1.15;;;21.20;53.50;;;;;;6270471;28;20021;-68
2021/10/26 01:47:58;;;;;;;1.58;1.10;;;21.20;53.60;;;;;;6251792;28;20034;-68
2021/10/26 01:51:01;;;;;;;1.38;1.15;;;21.20;53.50;;;;;;6245939;28;20029;-68
2021/10/26 01:54:02;;;;;;;1.63;1.00;;;21.20;53.50;;;;;;6270391;28;20032;-68
2021/10/26 01:57:07;;;;;;;2.05;1.30;;;21.20;53.50;;;;;;6279579;28;20027;-68
2021/10/26 02:00:10;;;;;;;1.38;1.15;;;21.20;53.50;;;;;;6295445;28;20039;-67
2021/10/26 02:03:11;;;;;;;1.58;1.25;;;21.20;53.60;;;;;;6295040;28;20028;-68
2021/10/26 02:06:11;;;;;;;1.38;1.20;;;21.20;53.50;;;;;;6294077;28;20031;-67
2021/10/26 02:09:12;;;;;;;1.58;1.25;;;21.20;53.50;;;;;;6270094;28;20033;-68
2021/10/26 02:12:13;;;;;;;1.30;1.10;;;21.20;53.50;;;;;;6291019;28;20054;-68
2021/10/26 02:15:13;;;;;;;1.77;1.27;;;21.20;53.60;;;;;;6293253;28;20024;-68
2021/10/26 02:18:14;;;;;;;1.30;1.20;;;21.20;53.50;;;;;;6277336;28;20021;-68
2021/10/26 02:21:14;;;;;;;2.20;1.20;;;21.20;53.60;;;;;;6269662;28;20375;-68
2021/10/26 02:24:15;;;;;;;1.25;1.10;;;21.20;53.60;;;;;;6245739;28;20025;-68
2021/10/26 02:27:16;;;;;;;2.13;1.33;;;21.20;53.50;;;;;;6266705;28;20029;-68
2021/10/26 02:30:16;;;;;;;1.30;1.15;;;21.20;53.60;;;;;;6268406;28;20025;-68
2021/10/26 02:33:17;;;;;;;1.63;1.08;;;21.20;53.50;;;;;;6269259;28;20053;-68
2021/10/26 02:36:18;;;;;;;2.42;1.25;;;21.20;53.60;;;;;;6269493;28;20032;-67
2021/10/26 02:39:18;;;;;;;1.52;1.08;;;21.20;53.50;;;;;;6269452;28;20032;-68
2021/10/26 02:42:19;;;;;;;1.48;1.10;;;21.20;53.50;;;;;;6269766;28;20025;-68
2021/10/26 02:45:20;;;;;;;1.20;1.00;;;21.20;53.50;;;;;;6269066;28;20035;-67
2021/10/26 02:48:20;;;;;;;1.33;1.23;;;21.20;53.50;;;;;;6269540;28;20028;-67
2021/10/26 02:51:21;;;;;;;1.75;1.30;;;21.20;53.60;;;;;;6269275;28;20478;-68
2021/10/26 02:54:21;;;;;;;1.60;1.30;;;21.20;53.70;;;;;;6269126;28;20490;-68
2021/10/26 02:57:22;;;;;;;1.42;1.25;;;21.20;53.60;;;;;;6279706;28;20036;-68
2021/10/26 03:00:23;;;;;;;1.77;1.23;;;21.20;53.60;;;;;;6293794;28;20060;-67
2021/10/26 03:03:23;;;;;;;1.38;1.00;;;21.20;53.60;;;;;;6273989;28;20079;-68
2021/10/26 03:06:24;;;;;;;1.77;1.30;;;21.20;53.60;;;;;;6269002;28;20032;-68
2021/10/26 03:09:25;;;;;;;1.63;1.40;;;21.20;53.60;;;;;;6268585;28;20013;-68
2021/10/26 03:12:25;;;;;;;3.08;1.30;;;21.20;53.60;;;;;;6268725;28;20506;-68
2021/10/26 03:15:27;;;;;;;1.30;0.98;;;21.20;53.60;;;;;;6268829;28;20036;-68
2021/10/26 03:18:27;;;;;;;1.42;1.10;;;21.20;53.60;;;;;;6268375;28;20029;-68
2021/10/26 03:21:28;;;;;;;2.00;1.15;;;21.20;53.50;;;;;;6269006;28;20032;-68
2021/10/26 03:24:28;;;;;;;1.50;0.93;;;21.20;53.60;;;;;;6290003;28;20104;-68
2021/10/26 03:27:30;;;;;;;1.20;1.10;;;21.20;53.60;;;;;;6286914;28;20363;-68
2021/10/26 03:30:30;;;;;;;1.73;1.30;;;21.20;53.60;;;;;;6292561;28;20029;-68
2021/10/26 03:33:32;;;;;;;1.23;1.10;;;21.20;53.60;;;;;;6273864;28;20029;-68
2021/10/26 03:36:33;;;;;;;1.35;1.00;;;21.20;53.60;;;;;;6272907;28;20037;-68
2021/10/26 03:39:34;;;;;;;1.75;1.20;;;21.20;53.60;;;;;;6297146;28;20132;-68
2021/10/26 03:42:34;;;;;;;1.83;1.33;;;21.20;54.30;;;;;;6280438;28;20021;-68
2021/10/26 03:45:35;;;;;;;1.63;1.10;;;21.20;53.60;;;;;;6273550;28;20386;-68
2021/10/26 03:48:36;;;;;;;0.98;0.88;;;21.20;53.60;;;;;;6272958;28;20056;-67
2021/10/26 03:51:36;;;;;;;1.95;1.40;;;21.20;53.60;;;;;;6273462;28;20383;-68
2021/10/26 03:54:39;;;;;;;1.40;1.30;;;21.20;53.60;;;;;;6273245;28;20391;-68
2021/10/26 03:57:40;;;;;;;1.60;1.20;;;21.20;53.60;;;;;;6273158;28;20364;-68
2021/10/26 04:00:41;;;;;;;1.65;1.00;;;21.20;53.60;;;;;;6272869;28;20029;-68
2021/10/26 04:03:41;;;;;;;1.40;1.10;;;21.20;53.60;;;;;;6272962;28;20021;-68
2021/10/26 04:06:44;;;;;;;0.98;0.90;;;21.20;53.60;;;;;;6273236;28;20102;-68
2021/10/26 04:09:51;;;;;;;1.00;0.90;;;21.20;53.60;;;;;;6272396;28;20017;-68
2021/10/26 04:12:52;;;;;;;1.27;1.05;;;21.20;53.60;;;;;;6273204;28;20108;-68
2021/10/26 04:15:56;;;;;;;1.83;1.13;;;21.20;53.60;;;;;;6273372;28;20493;-68
2021/10/26 04:18:56;;;;;;;2.08;1.02;;;21.20;53.60;;;;;;6293805;28;20452;-68
2021/10/26 04:21:57;;;;;;;1.15;0.93;;;21.20;53.60;;;;;;6297635;28;20038;-68
2021/10/26 04:24:57;;;;;;;1.10;1.00;;;21.20;53.60;;;;;;6297133;28;20025;-68
2021/10/26 04:27:59;;;;;;;1.20;0.90;;;21.20;53.60;;;;;;6297285;28;20145;-67
2021/10/26 04:31:02;;;;;;;1.55;1.25;;;21.20;53.60;;;;;;6292526;28;20025;-67
2021/10/26 04:34:03;;;;;;;1.20;1.10;;;21.20;53.60;;;;;;6272384;28;20048;-67
2021/10/26 04:37:06;;;;;;;1.02;0.93;;;21.20;53.60;;;;;;6287588;28;20081;-68
2021/10/26 04:40:07;;;;;;;1.42;1.20;;;21.20;53.60;;;;;;6295799;28;20547;-68
2021/10/26 04:43:08;;;;;;;1.83;1.15;;;21.20;53.60;;;;;;6276281;28;20021;-68
2021/10/26 04:46:08;;;;;;;1.13;1.02;;;21.20;53.60;;;;;;6271976;28;20449;-68
2021/10/26 04:49:09;;;;;;;1.48;1.10;;;21.20;53.60;;;;;;6272580;28;20025;-68
2021/10/26 04:52:10;;;;;;;1.10;0.93;;;21.20;53.60;;;;;;6271852;28;20498;-68
2021/10/26 04:55:10;;;;;;;2.08;1.17;;;21.20;53.60;;;;;;6270698;28;20017;-68
2021/10/26 04:58:11;;;;;;;0.80;0.80;;;21.20;53.70;;;;;;6271702;28;20486;-67
2021/10/26 05:01:11;;;;;;;1.10;0.90;;;21.20;53.70;;;;;;6268108;28;20018;-68
2021/10/26 05:04:12;;;;;;;1.35;1.00;;;21.20;53.70;;;;;;6271715;28;20485;-68
2021/10/26 05:07:14;;;;;;;1.65;1.20;;;21.20;53.60;;;;;;6275239;28;20031;-68
2021/10/26 05:10:14;;;;;;;1.25;1.05;;;21.20;53.70;;;;;;6296228;28;20066;-68
2021/10/26 05:13:15;;;;;;;1.70;1.08;;;21.20;53.70;;;;;;6296680;28;20121;-68
2021/10/26 05:16:16;;;;;;;1.13;0.93;;;21.20;53.70;;;;;;6284283;28;20029;-68
2021/10/26 05:19:19;;;;;;;1.40;0.90;;;21.20;53.70;;;;;;6271665;28;20108;-68
2021/10/26 05:22:23;;;;;;;1.98;1.17;;;21.20;53.70;;;;;;6269838;28;20037;-68
2021/10/26 05:25:23;;;;;;;1.63;1.00;;;21.20;53.70;;;;;;6276522;28;20385;-68
2021/10/26 05:28:25;;;;;;;1.55;1.10;;;21.20;53.70;;;;;;6294495;28;20033;-68
2021/10/26 05:31:25;;;;;;;1.35;1.10;;;21.20;54.30;;;;;;6293679;28;20028;-68
2021/10/26 05:34:26;;;;;;;1.55;1.17;;;21.20;53.70;;;;;;6294412;28;20065;-69
2021/10/26 05:37:27;;;;;;;1.30;1.15;;;21.20;53.70;;;;;;6294692;28;20082;-68
2021/10/26 05:40:28;;;;;;;1.20;1.00;;;21.20;53.70;;;;;;6294430;28;20048;-69
2021/10/26 05:43:28;;;;;;;1.30;1.02;;;21.20;53.70;;;;;;6294644;28;20021;-69
2021/10/26 05:46:29;;;;;;;1.10;1.00;;;21.20;53.70;;;;;;6289137;28;20021;-70
2021/10/26 05:49:30;;;;;;;3.72;1.00;;;21.20;53.70;;;;;;6270115;28;20606;-69
2021/10/26 05:52:30;;;;;;;1.75;1.20;;;21.20;53.70;;;;;;6260055;28;20462;-69
2021/10/26 05:55:31;;;;;;;1.25;1.08;;;21.20;53.70;;;;;;6271671;28;20025;-69
2021/10/26 05:58:32;;;;;;;4.38;1.80;;;21.20;53.80;;;;;;6271827;28;20056;-70
2021/10/26 06:01:32;;;;;;;6.05;2.28;;;21.20;53.50;;;;;;6271619;28;20029;-69
2021/10/26 06:04:33;;;;;;;5.30;1.92;;;21.20;52.40;;;;;;6271845;28;20499;-69
2021/10/26 06:07:34;;;;;;;3.55;2.00;;;21.20;52.90;;;;;;6277927;28;20385;-69
2021/10/26 06:10:46;;;;;;;4.07;2.00;;;21.10;52.20;;;;;;6270664;28;20124;-69
2021/10/26 06:13:52;;;;;;;2.90;1.70;;;21.20;52.80;;;;;;6269793;28;20036;-69
2021/10/26 06:16:53;;;;;;;5.10;2.28;;;21.20;53.00;;;;;;6271545;28;20025;-69
2021/10/26 06:19:54;;;;;;;5.97;2.40;;;21.20;52.90;;;;;;6271249;28;20021;-69
2021/10/26 06:22:54;;;;;;;5.78;1.80;;;21.20;53.00;;;;;;6271318;28;20090;-69
2021/10/26 06:25:55;;;;;;;3.53;2.03;;;21.20;53.00;;;;;;6275859;28;20024;-69
2021/10/26 06:28:56;;;;;;;2.58;1.80;;;21.10;52.80;;;;;;6279932;28;20075;-69
2021/10/26 06:31:57;;;;;;;3.30;1.92;;;21.20;53.10;;;;;;6268968;28;20530;-69
2021/10/26 06:34:57;;;;;;;4.93;2.17;;;21.20;53.10;;;;;;6271516;28;20036;-69
2021/10/26 06:37:58;;;;;;;3.53;2.00;;;21.20;53.10;;;;;;6271418;28;20028;-69
2021/10/26 06:40:59;;;;;;;3.22;2.05;;;21.20;53.20;;;;;;6269395;28;20029;-69
2021/10/26 06:44:02;;;;;;;2.28;1.77;;;21.20;53.00;;;;;;6269601;28;20432;-69
2021/10/26 06:47:03;;;;;;;2.92;2.00;;;21.20;53.00;;;;;;6282436;28;20044;-69
2021/10/26 06:50:05;;;;;;;3.63;2.42;;;21.20;53.10;;;;;;6295661;28;20025;-69
2021/10/26 06:53:06;;;;;;;4.55;2.00;;;21.20;53.10;;;;;;6288072;28;20474;-69
2021/10/26 06:56:14;;;;;;;2.50;2.00;;;21.20;53.10;;;;;;6269553;28;20028;-69
2021/10/26 06:59:15;;;;;;;3.35;2.25;;;21.20;53.10;;;;;;6270590;28;20021;-69
2021/10/26 07:02:15;;;;;;;3.67;2.10;;;21.20;53.10;;;;;;6270889;28;20172;-69
2021/10/26 07:05:22;;;;;;;3.13;2.00;;;21.20;53.20;;;;;;6270865;28;20134;-69
2021/10/26 07:08:22;;;;;;;5.60;2.65;;;21.20;53.20;;;;;;6286674;28;20032;-69
2021/10/26 07:11:23;;;;;;;5.32;2.72;;;21.20;53.20;;;;;;6295210;28;20041;-69
2021/10/26 07:14:23;;;;;;;6.50;3.35;;;21.20;53.10;;;;;;6271166;28;20032;-69
2021/10/26 07:17:24;;;;;;;6.60;3.50;;;21.20;53.20;;;;;;6270730;28;20021;-69
2021/10/26 07:20:25;;;;;;;9.45;4.13;;;21.20;53.20;;;;;;6270739;28;20047;-70
2021/10/26 07:23:26;;;;;;;11.75;4.38;;;21.20;53.20;;;;;;6285631;28;20496;-69
2021/10/26 07:26:26;;;;;;;8.95;4.43;;;21.20;53.20;;;;;;6294346;28;20017;-69
2021/10/26 07:29:27;;;;;;;11.75;6.22;;;21.20;53.10;;;;;;6292479;28;20516;-70
2021/10/26 07:32:27;;;;;;;13.88;6.38;;;21.20;53.20;;;;;;6271260;28;20036;-69
2021/10/26 07:35:40;;;;;;;15.15;7.40;;;21.20;53.20;;;;;;6295728;28;20076;-69
2021/10/26 07:38:41;;;;;;;14.13;6.50;;;21.20;53.10;;;;;;6295745;28;20103;-70
2021/10/26 07:41:42;;;;;;;15.77;6.85;;;21.20;53.20;;;;;;6294773;28;20103;-69
2021/10/26 07:44:43;;;;;;;17.02;7.25;;;21.20;53.90;;;;;;6295847;28;20089;-69
2021/10/26 07:47:44;;;;;;;18.63;7.90;;;21.20;53.20;;;;;;6285109;28;20021;-69
2021/10/26 07:50:46;;;;;;;16.73;7.50;;;21.20;53.20;;;;;;6270340;28;20078;-69
2021/10/26 07:53:47;;;;;;;15.98;7.22;;;21.20;53.20;;;;;;6295329;28;20520;-69
2021/10/26 07:56:48;;;;;;;21.23;8.35;;;21.20;53.20;;;;;;6290982;28;20029;-69
2021/10/26 07:59:53;;;;;;;15.32;7.18;;;21.20;53.10;;;;;;6294653;28;20029;-69
2021/10/26 08:02:54;;;;;;;;;;;21.20;53.20;;;;;;6289926;28;20107;-69
2021/10/26 08:05:55;;;;;;;17.85;7.35;;;21.20;53.20;;;;;;6275036;28;19912;-69
2021/10/26 08:08:55;;;;;;;18.90;8.40;;;21.20;53.10;;;;;;6269794;28;20490;-69
2021/10/26 08:11:56;;;;;;;18.23;6.43;;;21.20;53.10;;;;;;6274358;28;20060;-69
2021/10/26 08:14:57;;;;;;;17.02;7.25;;;21.20;53.20;;;;;;6294155;28;20371;-70
2021/10/26 08:17:57;;;;;;;14.93;7.15;;;21.20;53.20;;;;;;6285456;28;20025;-70
2021/10/26 08:20:58;;;;;;;15.82;7.30;;;21.20;53.20;;;;;;6274390;28;20055;-69
2021/10/26 08:24:01;;;;;;;14.88;6.95;;;21.20;53.90;;;;;;6273692;28;20021;-69
2021/10/26 08:27:17;;;;;;;13.80;6.55;;;21.20;53.30;;;;;;6274139;28;20044;-69
2021/10/26 08:30:31;;;;;;;16.77;7.22;;;21.20;53.30;;;;;;6274740;28;20110;-69
2021/10/26 08:36:33;;;;;;;13.52;6.70;;;21.20;53.30;;;;;;6291437;28;20035;-69
2021/10/26 08:39:36;;;;;;;16.00;6.90;;;21.20;53.30;;;;;;6276493;28;20057;-69
2021/10/26 08:42:37;;;;;;;12.55;6.43;;;21.20;53.40;;;;;;6286745;28;20033;-69
2021/10/26 08:45:38;;;;;;;12.25;5.95;;;21.20;53.40;;;;;;6285849;28;20630;-69
2021/10/26 08:48:40;;;;;;;14.15;6.13;;;21.20;53.40;;;;;;6285353;28;20112;-69
2021/10/26 08:51:44;;;;;;;13.45;6.35;;;21.20;53.40;;;;;;6291725;28;20119;-69
2021/10/26 08:54:49;;;;;;;17.10;6.97;;;21.20;53.40;;;;;;6295339;28;20020;-69
2021/10/26 08:57:50;;;;;;;12.63;5.72;;;21.20;53.40;;;;;;6296552;28;20382;-69
2021/10/26 09:00:55;;;;;;;12.82;6.20;;;21.20;53.40;;;;;;6296811;28;20108;-69
2021/10/26 09:04:10;;;;;;;14.10;5.68;;;21.20;53.40;;;;;;6274699;28;20088;-69
2021/10/26 09:07:20;;;;;;;13.00;5.40;;;21.20;53.40;;;;;;6278965;28;20023;-69
2021/10/26 09:10:21;;;;;;;12.88;6.25;;;21.20;53.40;;;;;;6277807;28;20049;-69
2021/10/26 09:19:44;;;;;;;11.55;5.20;;;21.20;53.40;;;;;;6295069;28;20497;-69
2021/10/26 09:22:57;;;;;;;11.93;5.03;;;21.20;53.40;;;;;;6294943;28;20017;-69
2021/10/26 09:25:59;;;;;;;11.73;4.97;;;21.20;53.40;;;;;;6289434;28;20024;-69
2021/10/26 09:28:59;;;;;;;10.52;4.82;;;21.20;53.40;;;;;;6296754;28;20013;-69
2021/10/26 09:32:04;;;;;;;10.80;5.30;;;21.20;53.40;;;;;;6292999;28;20037;-69
2021/10/26 09:35:09;;;;;;;11.65;5.57;;;21.20;53.40;;;;;;6272112;28;20033;-69
2021/10/26 09:38:09;;;;;;;9.43;4.50;;;21.20;53.40;;;;;;6292099;28;20116;-69
2021/10/26 09:41:10;;;;;;;10.27;4.75;;;21.20;53.40;;;;;;6291541;28;20036;-69
2021/10/26 09:44:16;;;;;;;8.32;4.18;;;21.20;53.40;;;;;;6270803;28;20080;-69
2021/10/26 09:47:24;;;;;;;7.80;4.13;;;21.20;53.40;;;;;;6264851;28;20064;-69
2021/10/26 09:50:32;;;;;;;11.10;4.80;;;21.20;53.40;;;;;;6295463;28;20028;-69
2021/10/26 09:53:34;;;;;;;9.68;4.78;;;21.20;53.40;;;;;;6281007;28;20024;-69
2021/10/26 09:56:35;;;;;;;8.02;4.00;;;21.20;53.40;;;;;;6282491;28;20434;-69
2021/10/26 09:59:37;;;;;;;8.32;4.32;;;21.20;53.40;;;;;;6250607;28;20037;-69
2021/10/26 10:02:38;;;;;;;8.18;4.43;;;21.20;53.40;;;;;;6264028;28;20385;-69
2021/10/26 10:05:43;;;;;;;7.60;3.90;;;21.20;53.40;;;;;;6270058;28;20048;-69
2021/10/26 10:08:44;;;;;;;11.85;4.55;;;21.20;53.40;;;;;;6286306;28;20021;-69
2021/10/26 10:12:04;;;;;;;14.20;4.50;;;21.20;53.40;;;;;;6271676;28;20048;-69
2021/10/26 10:15:07;;;;;;;8.65;3.85;;;21.20;53.40;;;;;;6295773;28;20075;-69
2021/10/26 10:18:08;;;;;;;9.18;4.15;;;21.20;54.10;;;;;;6294503;28;20444;-69
2021/10/26 10:21:13;;;;;;;6.05;3.70;;;21.20;53.40;;;;;;6294347;28;20064;-69
2021/10/26 10:24:16;;;;;;;7.07;3.92;;;21.20;53.40;;;;;;6292474;28;20105;-69
2021/10/26 10:27:18;;;;;;;7.38;3.80;;;21.20;53.40;;;;;;6296563;28;20063;-69
2021/10/26 10:30:19;;;;;;;7.47;3.78;;;21.20;53.40;;;;;;6292604;28;20483;-69
2021/10/26 10:33:20;;;;;;;7.85;3.30;;;21.30;53.50;;;;;;6271084;28;20222;-69
2021/10/26 10:36:22;;;;;;;5.78;3.05;;;21.20;53.40;;;;;;6271567;28;20112;-69
2021/10/26 10:39:32;;;;;;;8.07;3.38;;;21.30;53.50;;;;;;6270815;28;20032;-68
2021/10/26 10:42:49;;;;;;;6.00;3.25;;;21.20;53.40;;;;;;6262607;28;20017;-69
2021/10/26 10:45:49;;;;;;;5.85;3.10;;;21.20;53.40;;;;;;6257720;28;20025;-69
2021/10/26 10:48:50;;;;;;;7.60;3.40;;;21.20;53.40;;;;;;6270888;28;20087;-69
2021/10/26 10:52:05;;;;;;;5.93;2.85;;;21.20;53.40;;;;;;6278269;28;20024;-69
2021/10/26 10:55:23;;;;;;;9.43;3.45;;;21.20;53.40;;;;;;6263304;28;20029;-69
2021/10/26 10:58:29;;;;;;;4.80;3.08;;;21.20;53.40;;;;;;6274373;28;20086;-69
2021/10/26 11:01:36;;;;;;;7.70;3.17;;;21.20;53.40;;;;;;6271027;28;20497;-69
2021/10/26 11:04:37;;;;;;;4.95;2.75;;;21.20;53.40;;;;;;6278097;28;20036;-68
2021/10/26 11:07:44;;;;;;;5.65;2.67;;;21.20;53.40;;;;;;6269337;28;20025;-69
2021/10/26 11:10:50;;;;;;;6.43;3.40;;;21.20;53.40;;;;;;6268724;28;20408;-69
2021/10/26 11:14:17;;;;;;;4.25;2.45;;;21.30;53.70;;;;;;6270242;28;20025;-69
2021/10/26 11:20:37;;;;;;;4.43;3.13;;;21.20;54.30;;;;;;6270003;28;20056;-69
2021/10/26 11:23:45;;;;;;;5.35;2.75;;;21.30;53.80;;;;;;6270452;28;20540;-69
2021/10/26 11:26:46;;;;;;;8.75;2.65;;;21.30;53.80;;;;;;6284618;28;20394;-69
2021/10/26 11:29:46;;;;;;;8.32;3.08;;;21.30;53.80;;;;;;6269815;28;20486;-69
2021/10/26 11:33:07;;;;;;;6.07;2.83;;;21.30;53.90;;;;;;6294444;28;20062;-68
2021/10/26 11:36:08;;;;;;;5.55;2.47;;;21.30;53.80;;;;;;6290777;28;20551;-69
2021/10/26 11:39:13;;;;;;;8.18;3.10;;;21.30;53.50;;;;;;6259203;28;20412;-69
2021/10/26 11:42:17;;;;;;;5.78;3.03;;;21.40;53.60;;;;;;6282918;28;20032;-69
2021/10/26 11:45:19;;;;;;;7.28;2.65;;;21.30;53.60;;;;;;6295162;28;20025;-71
2021/10/26 11:48:38;;;;;;;5.65;2.85;;;21.30;53.50;;;;;;6295519;28;20024;-69
2021/10/26 11:51:41;;;;;;;11.30;3.15;;;21.30;53.40;;;;;;6298991;28;20028;-69
2021/10/26 11:54:50;;;;;;;7.43;4.45;;;21.30;53.40;;;;;;6277107;28;20033;-69
2021/10/26 11:57:51;;;;;;;7.22;4.68;;;21.30;53.10;;;;;;6289458;28;20020;-68
2021/10/26 12:00:59;;;;;;;6.90;4.60;;;21.30;52.90;;;;;;6299466;28;20031;-69
2021/10/26 12:04:21;;;;;;;7.97;4.07;;;21.30;52.90;;;;;;6295562;28;20385;-69
2021/10/26 12:07:24;;;;;;;8.23;4.57;;;21.30;53.00;;;;;;6296145;28;20157;-69
2021/10/26 12:10:25;;;;;;;8.02;4.18;;;21.30;53.10;;;;;;6275054;28;20041;-69
2021/10/26 12:13:25;;;;;;;9.40;4.63;;;21.30;53.10;;;;;;6274464;28;20078;-69
2021/10/26 12:16:26;;;;;;;9.00;4.18;;;21.30;53.20;;;;;;6274633;28;20036;-69
2021/10/26 12:19:28;;;;;;;6.50;4.00;;;21.30;53.20;;;;;;6274522;28;20036;-69
2021/10/26 12:22:34;;;;;;;7.57;4.32;;;21.30;53.20;;;;;;6275909;28;20069;-69
2021/10/26 12:25:42;;;;;;;6.18;3.97;;;21.30;53.20;;;;;;6278397;28;20021;-69
2021/10/26 12:28:57;;;;;;;6.65;3.95;;;21.30;53.30;;;;;;6284200;28;20016;-69
2021/10/26 12:31:59;;;;;;;7.53;3.40;;;21.30;53.30;;;;;;6296413;28;20123;-69
2021/10/26 12:35:00;;;;;;;6.60;3.80;;;21.30;53.40;;;;;;6299066;28;20298;-69
2021/10/26 12:38:36;;;;;;;7.38;4.00;;;21.30;53.40;;;;;;6278062;28;20486;-69
2021/10/26 12:41:38;;;;;;;6.30;3.40;;;21.40;53.40;;;;;;6268546;28;20499;-69
2021/10/26 12:44:52;;;;;;;6.60;3.80;;;21.30;53.40;;;;;;6274008;28;20017;-69
2021/10/26 12:47:57;;;;;;;5.82;4.00;;;21.30;53.40;;;;;;6284774;28;20032;-69
2021/10/26 12:51:02;;;;;;;8.73;3.65;;;21.30;53.40;;;;;;6273666;28;20047;-69
2021/10/26 12:54:16;;;;;;;7.85;4.35;;;21.30;53.40;;;;;;6287465;28;20119;-69
2021/10/26 12:57:34;;;;;;;6.72;3.75;;;21.30;53.40;;;;;;6282330;28;20483;-69
2021/10/26 13:00:47;;;;;;;4.70;3.22;;;21.30;53.50;;;;;;6273104;28;20025;-69
2021/10/26 13:03:58;;;;;;;5.63;3.42;;;21.30;53.40;;;;;;6273574;28;20549;-69
2021/10/26 13:07:01;;;;;;;5.10;3.20;;;21.30;53.40;;;;;;6272269;28;20032;-69
2021/10/26 13:10:08;;;;;;;6.03;3.17;;;21.30;53.40;;;;;;6272792;28;20037;-69
2021/10/26 13:13:08;;;;;;;4.10;3.08;;;21.30;53.40;;;;;;6272711;28;20088;-69
2021/10/26 13:16:42;;;;;;;8.23;3.83;;;21.30;53.50;;;;;;6271767;28;20025;-70
2021/10/26 13:19:43;;;;;;;10.27;3.83;;;21.30;53.40;;;;;;6272995;28;20025;-69
2021/10/26 13:23:12;;;;;;;9.02;3.40;;;21.30;53.30;;;;;;6272720;28;20044;-68
2021/10/26 13:26:14;;;;;;;10.05;3.65;;;21.30;53.20;;;;;;6271808;28;20313;-70
2021/10/26 13:29:16;;;;;;;7.55;4.13;;;21.30;53.10;;;;;;6271932;28;20021;-70
2021/10/26 13:32:20;;;;;;;8.15;3.97;;;21.30;53.10;;;;;;6271077;28;20028;-69
2021/10/26 13:35:20;;;;;;;6.45;3.90;;;21.30;53.20;;;;;;6272012;28;20068;-69
2021/10/26 13:38:21;;;;;;;7.88;3.78;;;21.20;53.00;;;;;;6272589;28;20500;-69
2021/10/26 13:41:22;;;;;;;5.93;3.78;;;21.20;52.80;;;;;;6272017;28;20025;-69
2021/10/26 13:44:22;;;;;;;10.85;4.13;;;21.20;52.50;;;;;;6294961;28;20028;-69
2021/10/26 13:47:23;;;;;;;4.07;2.95;;;21.30;52.50;;;;;;6282466;28;20017;-69
2021/10/26 13:50:24;;;;;;;7.03;3.85;;;21.30;52.70;;;;;;6271958;28;20159;-69
2021/10/26 13:53:25;;;;;;;5.05;3.10;;;21.30;52.80;;;;;;6270606;28;20394;-69
2021/10/26 13:56:25;;;;;;;5.75;3.35;;;21.30;52.90;;;;;;6271866;28;20067;-69
2021/10/26 13:59:26;;;;;;;7.13;3.05;;;21.30;52.90;;;;;;6272332;28;20029;-68
2021/10/26 14:02:27;;;;;;;4.18;2.72;;;21.30;52.90;;;;;;6272405;28;20031;-68
2021/10/26 14:05:28;;;;;;;7.03;2.80;;;21.30;53.00;;;;;;6272460;28;20017;-69
2021/10/26 14:08:32;;;;;;;6.20;3.28;;;21.30;53.00;;;;;;6271618;28;20092;-68
2021/10/26 14:11:34;;;;;;;4.75;2.60;;;21.30;53.00;;;;;;6271415;28;20501;-69
2021/10/26 14:14:35;;;;;;;4.88;2.50;;;21.30;53.30;;;;;;6270268;28;20029;-69
2021/10/26 14:17:36;;;;;;;4.78;3.03;;;21.30;53.10;;;;;;6279479;28;20044;-68
2021/10/26 14:20:42;;;;;;;4.55;2.60;;;21.30;53.10;;;;;;6282908;28;20028;-69
2021/10/26 14:23:43;;;;;;;6.38;2.58;;;21.30;53.20;;;;;;6295691;28;20024;-69
2021/10/26 14:26:43;;;;;;;4.07;2.30;;;21.30;53.20;;;;;;6296578;28;20091;-69
2021/10/26 14:29:44;;;;;;;4.93;3.00;;;21.30;53.20;;;;;;6274881;28;20453;-69
2021/10/26 14:32:52;;;;;;;6.07;2.58;;;21.30;53.30;;;;;;6270706;28;20025;-68
2021/10/26 14:35:53;;;;;;;3.88;2.13;;;21.30;53.20;;;;;;6271001;28;20031;-69
2021/10/26 14:39:06;;;;;;;5.05;2.40;;;21.30;53.10;;;;;;6267272;28;20033;-69
2021/10/26 14:42:35;;;;;;;3.22;2.13;;;21.30;53.20;;;;;;6258706;28;20111;-69
2021/10/26 14:58:55;;;;;;;4.00;2.30;;;21.30;53.30;;;;;;6271525;28;20028;-70
2021/10/26 15:01:55;;;;;;;5.50;2.33;;;21.30;53.40;;;;;;6274360;28;20383;-69
2021/10/26 15:04:56;;;;;;;2.70;2.05;;;21.30;53.40;;;;;;6295384;28;20032;-69
2021/10/26 15:07:58;;;;;;;4.95;2.35;;;21.30;53.40;;;;;;6275913;28;20029;-69
2021/10/26 15:11:10;;;;;;;3.15;1.92;;;21.30;53.40;;;;;;6268752;28;20044;-69
2021/10/26 15:14:13;;;;;;;6.10;2.13;;;21.30;53.50;;;;;;6291174;28;20387;-69
2021/10/26 15:17:14;;;;;;;8.18;2.45;;;21.30;53.50;;;;;;6289826;28;20495;-69
2021/10/26 15:20:15;;;;;;;3.63;2.05;;;21.30;53.50;;;;;;6293977;28;20024;-69
2021/10/26 15:23:28;;;;;;;6.43;2.10;;;21.30;53.60;;;;;;6287020;28;20044;-70
2021/10/26 15:33:24;;;;;;;3.30;2.00;;;21.30;53.80;;;;;;6297869;28;20103;-70
2021/10/26 15:36:24;;;;;;;3.75;1.90;;;21.30;53.80;;;;;;6301924;28;20082;-69
2021/10/26 15:39:25;;;;;;;5.55;2.30;;;21.30;53.90;;;;;;6285455;28;20104;-69
2021/10/26 15:42:25;;;;;;;3.30;1.85;;;21.30;53.80;;;;;;6266765;28;20486;-70
2021/10/26 15:45:26;;;;;;;2.53;1.80;;;21.30;53.90;;;;;;6298055;28;20482;-69
2021/10/26 15:48:27;;;;;;;2.92;1.52;;;21.30;53.90;;;;;;6270976;28;20112;-71
2021/10/26 15:51:28;;;;;;;3.00;2.00;;;21.30;53.90;;;;;;6294815;28;20025;-69
2021/10/26 15:54:28;;;;;;;6.20;1.85;;;21.30;53.90;;;;;;6293405;28;20039;-69
2021/10/26 15:57:29;;;;;;;8.88;2.70;;;21.30;53.90;;;;;;6298166;28;20033;-69
2021/10/26 16:00:30;;;;;;;3.72;2.00;;;21.40;53.90;;;;;;6291050;28;20021;-69
2021/10/26 16:03:31;;;;;;;12.20;2.10;;;21.30;53.90;;;;;;6283940;28;20057;-69
2021/10/26 16:06:31;;;;;;;3.50;2.00;;;21.30;53.60;;;;;;6279066;28;20021;-69
2021/10/26 16:09:54;;;;;;;3.40;1.77;;;21.30;53.70;;;;;;6300951;28;20435;-69
2021/10/26 16:13:00;;;;;;;5.78;1.88;;;21.30;53.70;;;;;;6289542;28;20036;-69
2021/10/26 16:16:03;;;;;;;4.45;2.10;;;21.30;53.70;;;;;;6299908;28;20024;-69
2021/10/26 16:19:07;;;;;;;2.75;2.03;;;21.30;53.90;;;;;;6298214;28;20081;-69
2021/10/26 16:22:08;;;;;;;7.15;2.10;;;21.40;54.00;;;;;;6299691;28;20028;-69
2021/10/26 16:25:10;;;;;;;4.65;2.08;;;21.30;54.00;;;;;;6295071;28;20390;-69